createdAt,value
2022-10-18T00:03:38.685Z,8.51
2022-10-18T00:09:08.933Z,8.72
2022-10-18T00:14:42.423Z,8.24
2022-10-18T00:20:12.417Z,8.29
2022-10-18T00:25:34.741Z,8.52
2022-10-18T00:30:56.805Z,8.82
2022-10-18T00:36:19.862Z,8.82
2022-10-18T00:41:41.664Z,9.02
2022-10-18T00:47:09.436Z,9.09
2022-10-18T00:52:40.111Z,9.09
2022-10-18T00:58:06.270Z,8.36
2022-10-18T01:03:28.744Z,8.94
2022-10-18T01:09:18.647Z,9.08
2022-10-18T01:15:15.727Z,8.99
2022-10-18T01:20:59.804Z,9.04
2022-10-18T01:26:48.970Z,9.01
2022-10-18T01:32:17.175Z,8.86
2022-10-18T01:37:41.690Z,8.81
2022-10-18T01:48:33.983Z,8.82
2022-10-18T01:53:56.767Z,8.87
2022-10-18T01:59:33.334Z,8.85
2022-10-18T02:05:10.615Z,8.79
2022-10-18T02:10:39.715Z,8.41
2022-10-18T02:16:11.215Z,8.13
2022-10-18T02:21:41.694Z,8.31
2022-10-18T02:27:03.867Z,8.63
2022-10-18T02:32:42.642Z,8.66
2022-10-18T02:38:07.813Z,8.64
2022-10-18T02:43:29.917Z,8.36
2022-10-18T02:48:52.362Z,8.64
2022-10-18T02:54:14.414Z,8.64
2022-10-18T02:59:36.278Z,8.67
2022-10-18T03:04:58.665Z,8.42
2022-10-18T03:10:20.567Z,8.60
2022-10-18T03:15:43.102Z,8.58
2022-10-18T03:21:09.205Z,8.62
2022-10-18T03:26:35.990Z,8.41
2022-10-18T03:31:58.184Z,8.56
2022-10-18T03:37:20.376Z,8.49
2022-10-18T03:42:42.424Z,8.53
2022-10-18T03:48:04.594Z,8.21
2022-10-18T03:53:26.574Z,8.47
2022-10-18T03:58:48.215Z,8.49
2022-10-18T04:04:10.562Z,8.58
2022-10-18T04:09:36.642Z,8.62
2022-10-18T04:14:58.775Z,8.44
2022-10-18T04:20:20.676Z,8.44
2022-10-18T04:31:05.894Z,8.58
2022-10-18T04:36:30.095Z,8.57
2022-10-18T04:41:52.574Z,8.57
2022-10-18T04:47:15.012Z,7.96
2022-10-18T04:52:36.790Z,8.51
2022-10-18T04:57:59.073Z,8.50
2022-10-18T05:03:21.454Z,8.40
2022-10-18T05:08:43.465Z,8.46
2022-10-18T05:14:16.745Z,8.52
2022-10-18T05:19:38.925Z,8.50
2022-10-18T05:25:00.585Z,8.41
2022-10-18T05:30:22.599Z,8.58
2022-10-18T05:35:44.816Z,8.62
2022-10-18T05:41:07.495Z,8.63
2022-10-18T05:46:29.677Z,8.60
2022-10-18T05:51:51.855Z,8.67
2022-10-18T05:57:13.704Z,8.70
2022-10-18T06:02:35.775Z,8.71
2022-10-18T06:07:58.524Z,8.70
2022-10-18T06:13:20.846Z,8.67
2022-10-18T06:18:43.305Z,8.30
2022-10-18T06:24:06.942Z,8.54
2022-10-18T06:29:28.894Z,8.54
2022-10-18T06:34:55.474Z,8.17
2022-10-18T06:40:28.205Z,8.37
2022-10-18T06:45:54.113Z,8.34
2022-10-18T06:51:19.204Z,8.30
2022-10-18T06:56:46.682Z,8.16
2022-10-18T07:02:13.102Z,8.56
2022-10-18T07:07:37.665Z,8.20
2022-10-18T07:13:26.986Z,8.38
2022-10-18T07:18:44.884Z,8.57
2022-10-18T07:24:07.654Z,8.22
2022-10-18T07:29:31.303Z,8.41
2022-10-18T07:34:55.664Z,8.59
2022-10-18T07:40:21.233Z,8.55
2022-10-18T07:45:55.884Z,8.45
2022-10-18T07:51:19.849Z,8.63
2022-10-18T07:56:44.055Z,8.49
2022-10-18T08:02:06.441Z,8.87
2022-10-18T08:07:29.323Z,8.28
2022-10-18T08:12:52.064Z,8.24
2022-10-18T08:18:14.354Z,8.86
2022-10-18T08:23:37.125Z,8.61
2022-10-18T08:29:17.464Z,8.38
2022-10-18T08:34:40.915Z,8.14
2022-10-18T08:40:03.153Z,8.74
2022-10-18T08:45:40.923Z,8.74
2022-10-18T08:51:07.602Z,8.66
2022-10-18T08:56:29.423Z,8.61
2022-10-18T09:01:55.097Z,8.55
2022-10-18T09:07:45.901Z,8.48
2022-10-18T09:13:57.863Z,8.01
2022-10-18T09:20:06.365Z,8.54
2022-10-18T09:25:44.024Z,7.86
2022-10-18T09:31:50.662Z,7.97
2022-10-18T09:37:53.766Z,7.89
2022-10-18T09:43:50.018Z,7.87
2022-10-18T09:55:34.974Z,8.22
2022-10-18T10:01:03.765Z,8.31
2022-10-18T10:06:38.425Z,8.17
2022-10-18T10:12:00.774Z,8.04
2022-10-18T10:17:28.115Z,7.77
2022-10-18T10:22:52.125Z,8.51
2022-10-18T10:28:19.215Z,8.47
2022-10-18T10:33:41.272Z,8.25
2022-10-18T10:39:06.864Z,8.49
2022-10-18T10:44:32.505Z,8.48
2022-10-18T10:49:57.154Z,8.46
2022-10-18T10:55:34.809Z,8.36
2022-10-18T11:00:58.564Z,7.96
2022-10-18T11:06:58.603Z,8.51
2022-10-18T11:12:41.624Z,8.49
2022-10-18T11:18:09.306Z,8.28
2022-10-18T11:23:36.860Z,8.42
2022-10-18T11:29:32.142Z,8.40
2022-10-18T11:35:11.025Z,8.39
2022-10-18T11:40:39.006Z,8.39
2022-10-18T11:46:15.084Z,8.34
2022-10-18T11:52:22.845Z,8.35
2022-10-18T11:57:57.322Z,8.24
2022-10-18T12:03:31.375Z,8.12
2022-10-18T12:21:38.322Z,7.45
2022-10-18T12:45:19.709Z,7.32
2022-10-18T12:50:44.823Z,7.53
2022-10-18T12:56:29.058Z,7.82
2022-10-18T13:01:57.060Z,7.86
2022-10-18T13:07:23.375Z,7.64
2022-10-18T13:13:38.775Z,7.69
2022-10-18T13:19:22.764Z,7.70
2022-10-18T13:25:21.785Z,7.83
2022-10-18T13:30:55.404Z,7.84
2022-10-18T13:36:25.413Z,7.57
2022-10-18T13:41:47.599Z,7.69
2022-10-18T13:47:13.584Z,7.62
2022-10-18T13:52:44.777Z,7.61
2022-10-18T13:58:44.615Z,7.56
2022-10-18T14:04:34.153Z,7.57
2022-10-18T14:10:06.200Z,7.20
2022-10-18T14:15:40.302Z,7.26
2022-10-18T14:21:13.665Z,7.11
2022-10-18T14:26:37.347Z,7.20
2022-10-18T14:32:14.063Z,6.73
2022-10-18T14:37:40.522Z,7.09
2022-10-18T14:43:12.864Z,6.79
2022-10-18T14:48:38.497Z,6.72
2022-10-18T14:54:08.614Z,6.83
2022-10-18T15:00:00.167Z,6.94
2022-10-18T15:05:29.423Z,7.06
2022-10-18T15:10:52.326Z,7.20
2022-10-18T15:16:19.954Z,7.18
2022-10-18T15:22:19.688Z,7.18
2022-10-18T15:33:12.203Z,7.01
2022-10-18T15:38:34.290Z,7.00
2022-10-18T15:44:20.453Z,7.01
2022-10-18T15:49:45.360Z,7.15
2022-10-18T15:55:33.497Z,7.13
2022-10-18T16:01:00.039Z,7.06
2022-10-18T16:06:21.932Z,7.18
2022-10-18T16:11:43.624Z,7.15
2022-10-18T16:17:07.946Z,7.12
2022-10-18T16:22:32.253Z,7.06
2022-10-18T16:27:56.874Z,7.11
2022-10-18T16:33:21.471Z,7.13
2022-10-18T16:38:44.318Z,7.14
2022-10-18T16:44:07.006Z,7.10
2022-10-18T16:49:29.192Z,7.12
2022-10-18T16:54:51.447Z,7.10
2022-10-18T17:00:21.625Z,7.12
2022-10-18T17:05:44.058Z,7.14
2022-10-18T17:11:05.935Z,6.94
2022-10-18T17:16:30.706Z,7.08
2022-10-18T17:21:53.020Z,7.11
2022-10-18T17:27:15.566Z,7.11
2022-10-18T17:32:37.684Z,7.10
2022-10-18T17:38:00.587Z,7.08
2022-10-18T17:43:22.914Z,7.08
2022-10-18T17:48:46.266Z,7.02
2022-10-18T17:54:08.553Z,7.03
2022-10-18T17:59:30.596Z,7.03
2022-10-18T18:04:55.297Z,7.01
2022-10-18T18:10:18.966Z,7.06
2022-10-18T18:15:43.082Z,6.93
2022-10-18T18:21:05.497Z,6.80
2022-10-18T18:26:28.147Z,7.03
2022-10-18T18:31:50.244Z,7.03
2022-10-18T18:37:12.323Z,6.98
2022-10-18T18:42:35.191Z,6.90
2022-10-18T18:47:58.203Z,6.82
2022-10-18T18:53:20.743Z,6.86
2022-10-18T18:58:47.446Z,6.88
2022-10-18T19:04:10.868Z,6.98
2022-10-18T19:09:58.042Z,6.96
2022-10-18T19:15:20.227Z,6.90
2022-10-18T19:20:42.265Z,6.93
2022-10-18T19:26:16.785Z,6.92
2022-10-18T19:31:40.024Z,6.95
2022-10-18T19:37:02.104Z,6.95
2022-10-18T19:42:28.909Z,6.95
2022-10-18T19:47:53.206Z,6.96
2022-10-18T19:53:15.483Z,6.95
2022-10-18T19:58:37.765Z,6.99
2022-10-18T20:04:00.111Z,6.91
2022-10-18T20:09:23.215Z,6.97
2022-10-18T20:15:08.705Z,6.50
2022-10-18T20:20:36.622Z,6.40
2022-10-18T20:26:17.945Z,6.93
2022-10-18T20:31:43.555Z,6.33
2022-10-18T20:37:10.275Z,6.34
2022-10-18T20:43:07.590Z,6.72
2022-10-18T20:48:58.328Z,6.93
2022-10-18T20:55:02.180Z,6.43
2022-10-18T21:07:16.022Z,6.92
2022-10-18T21:12:38.400Z,6.63
2022-10-18T21:18:00.645Z,6.75
2022-10-18T21:23:23.014Z,6.86
2022-10-18T21:28:50.535Z,6.84
2022-10-18T21:34:15.715Z,6.90
2022-10-18T21:39:37.864Z,6.79
2022-10-18T21:44:59.964Z,6.90
2022-10-18T21:50:21.845Z,6.92
2022-10-18T21:55:44.043Z,6.76
2022-10-18T22:01:13.945Z,6.94
2022-10-18T22:06:37.151Z,6.92
2022-10-18T22:11:58.992Z,6.90
2022-10-18T22:17:21.296Z,6.82
2022-10-18T22:22:43.525Z,6.73
2022-10-18T22:28:05.984Z,6.62
2022-10-18T22:33:27.996Z,6.46
2022-10-18T22:38:49.942Z,6.38
2022-10-18T22:44:13.535Z,6.30
2022-10-18T22:49:35.415Z,6.46
2022-10-18T22:54:57.496Z,6.68
2022-10-18T23:00:19.775Z,6.67
2022-10-18T23:05:43.895Z,6.51
2022-10-18T23:11:06.115Z,6.67
2022-10-18T23:16:30.235Z,6.62
2022-10-18T23:21:51.844Z,6.52
2022-10-18T23:27:14.162Z,6.61
2022-10-18T23:32:36.138Z,6.66
2022-10-18T23:37:57.914Z,6.68
2022-10-18T23:43:19.790Z,6.67
2022-10-18T23:48:41.798Z,6.61
2022-10-18T23:54:03.878Z,6.66
2022-10-18T23:59:25.575Z,6.63
